createdAt,value
2019-03-05T00:00:19.154Z,9.70
2019-03-05T00:02:50.409Z,8.17
2019-03-05T00:05:20.129Z,8.00
2019-03-05T00:07:49.956Z,3.07
2019-03-05T00:10:19.688Z,4.15
2019-03-05T00:12:49.403Z,6.65
2019-03-05T00:15:22.439Z,1.57
2019-03-05T00:17:52.085Z,8.77
2019-03-05T00:20:22.118Z,5.60
2019-03-05T00:22:51.911Z,6.72
2019-03-05T00:25:21.836Z,7.65
2019-03-05T00:27:59.348Z,6.17
2019-03-05T00:30:50.014Z,8.30
2019-03-05T00:33:32.814Z,7.00
2019-03-05T00:36:32.316Z,9.23
2019-03-05T00:39:45.678Z,4.77
2019-03-05T00:42:52.291Z,4.20
2019-03-05T00:46:21.869Z,4.95
2019-03-05T00:49:38.155Z,3.13
2019-03-05T00:52:35.768Z,3.23
2019-03-05T00:55:30.218Z,7.90
2019-03-05T00:58:34.322Z,7.43
2019-03-05T01:01:28.734Z,3.63
2019-03-05T01:04:51.913Z,2.07
2019-03-05T01:07:22.003Z,7.83
2019-03-05T01:09:51.628Z,8.73
2019-03-05T01:12:22.918Z,6.45
2019-03-05T01:14:53.799Z,4.70
2019-03-05T01:17:23.544Z,8.83
2019-03-05T01:19:53.174Z,4.27
2019-03-05T01:22:23.030Z,2.72
2019-03-05T01:24:53.318Z,2.30
2019-03-05T01:27:23.791Z,1.30
2019-03-05T01:29:54.341Z,1.60
2019-03-05T01:32:48.309Z,1.00
2019-03-05T01:35:37.960Z,2.17
2019-03-05T01:38:08.199Z,1.27
2019-03-05T01:40:47.180Z,1.00
2019-03-05T01:43:18.772Z,1.30
2019-03-05T01:45:50.368Z,1.13
2019-03-05T01:48:20.547Z,2.07
2019-03-05T01:50:51.161Z,1.73
2019-03-05T01:53:25.086Z,5.83
2019-03-05T01:55:54.994Z,2.02
2019-03-05T01:58:24.630Z,3.60
2019-03-05T02:00:55.377Z,3.02
2019-03-05T02:03:25.089Z,4.20
2019-03-05T02:05:55.260Z,6.90
2019-03-05T02:08:25.001Z,4.57
2019-03-05T02:10:55.508Z,3.77
2019-03-05T02:13:25.739Z,6.40
2019-03-05T02:15:55.671Z,4.50
2019-03-05T02:18:27.005Z,6.05
2019-03-05T02:20:57.328Z,5.23
2019-03-05T02:23:50.390Z,6.85
2019-03-05T02:26:51.018Z,7.80
2019-03-05T02:29:50.327Z,8.57
2019-03-05T02:32:45.221Z,4.67
2019-03-05T02:35:48.944Z,5.70
2019-03-05T02:38:37.759Z,6.77
2019-03-05T02:41:19.680Z,7.90
2019-03-05T02:44:34.038Z,8.03
2019-03-05T02:47:45.217Z,11.65
2019-03-05T02:50:55.631Z,10.27
2019-03-05T02:54:31.363Z,8.73
2019-03-05T02:57:09.580Z,9.20
2019-03-05T02:59:39.467Z,8.47
2019-03-05T03:02:21.973Z,11.83
2019-03-05T03:04:54.047Z,19.30
2019-03-05T03:07:23.774Z,8.60
2019-03-05T03:10:15.689Z,7.93
2019-03-05T03:12:45.719Z,8.03
2019-03-05T03:15:16.814Z,11.70
2019-03-05T03:17:47.229Z,10.37
2019-03-05T03:20:18.136Z,12.88
2019-03-05T03:22:48.137Z,11.03
2019-03-05T03:25:19.853Z,11.55
2019-03-05T03:27:49.822Z,11.77
2019-03-05T03:30:24.691Z,13.67
2019-03-05T03:32:54.338Z,11.50
2019-03-05T03:35:24.010Z,10.90
2019-03-05T03:37:54.051Z,10.43
2019-03-05T03:40:25.933Z,13.97
2019-03-05T03:42:56.149Z,14.80
2019-03-05T03:45:26.732Z,12.30
2019-03-05T03:47:56.458Z,16.87
2019-03-05T03:50:26.412Z,14.50
2019-03-05T03:52:56.119Z,9.30
2019-03-05T03:55:25.903Z,20.33
2019-03-05T03:57:55.563Z,18.50
2019-03-05T04:00:25.951Z,15.55
2019-03-05T04:02:56.304Z,18.27
2019-03-05T04:05:26.321Z,18.17
2019-03-05T04:07:56.027Z,13.03
2019-03-05T04:10:26.023Z,15.27
2019-03-05T04:12:55.671Z,20.10
2019-03-05T04:15:25.394Z,14.87
2019-03-05T04:17:55.360Z,18.12
2019-03-05T04:20:28.404Z,9.58
2019-03-05T04:22:58.696Z,12.07
2019-03-05T04:25:28.696Z,9.47
2019-03-05T04:27:59.014Z,13.63
2019-03-05T04:30:28.752Z,10.40
2019-03-05T04:32:58.401Z,7.58
2019-03-05T04:35:28.114Z,9.45
2019-03-05T04:37:57.735Z,13.83
2019-03-05T04:40:28.175Z,13.13
2019-03-05T04:42:57.900Z,9.13
2019-03-05T04:45:49.626Z,12.80
2019-03-05T04:48:19.449Z,8.50
2019-03-05T04:50:58.595Z,8.10
2019-03-05T04:53:28.474Z,22.93
2019-03-05T04:55:58.397Z,16.57
2019-03-05T04:58:28.076Z,15.30
2019-03-05T05:00:57.828Z,11.22
2019-03-05T05:03:27.483Z,14.58
2019-03-05T05:05:57.255Z,14.37
2019-03-05T05:08:26.945Z,18.03
2019-03-05T05:10:56.693Z,15.83
2019-03-05T05:13:26.356Z,11.60
2019-03-05T05:15:57.398Z,15.78
2019-03-05T05:18:28.748Z,15.07
2019-03-05T05:21:00.978Z,20.40
2019-03-05T05:23:30.933Z,25.70
2019-03-05T05:26:01.157Z,7.63
2019-03-05T05:28:30.787Z,22.95
2019-03-05T05:31:00.423Z,15.03
2019-03-05T05:33:30.107Z,13.10
2019-03-05T05:36:00.202Z,13.13
2019-03-05T05:38:29.876Z,17.60
2019-03-05T05:40:59.926Z,18.42
2019-03-05T05:43:30.789Z,17.43
2019-03-05T05:46:00.494Z,14.90
2019-03-05T05:48:30.617Z,14.00
2019-03-05T05:51:00.329Z,15.07
2019-03-05T05:53:29.996Z,11.43
2019-03-05T05:56:01.129Z,13.00
2019-03-05T05:58:30.885Z,12.00
2019-03-05T06:01:02.422Z,5.90
2019-03-05T06:03:32.098Z,11.88
2019-03-05T06:06:01.835Z,9.78
2019-03-05T06:08:31.548Z,5.90
2019-03-05T06:11:01.469Z,9.37
2019-03-05T06:13:31.672Z,3.95
2019-03-05T06:16:01.372Z,6.60
2019-03-05T06:18:31.049Z,6.08
2019-03-05T06:21:00.917Z,4.92
2019-03-05T06:23:30.546Z,6.03
2019-03-05T06:26:00.179Z,6.22
2019-03-05T06:28:30.550Z,6.25
2019-03-05T06:31:00.564Z,4.58
2019-03-05T06:33:30.492Z,5.03
2019-03-05T06:36:00.123Z,4.60
2019-03-05T06:38:29.780Z,5.03
2019-03-05T06:40:59.484Z,6.05
2019-03-05T06:43:31.471Z,7.17
2019-03-05T06:46:01.110Z,4.97
2019-03-05T06:48:30.784Z,11.80
2019-03-05T06:51:01.415Z,3.60
2019-03-05T06:53:31.461Z,7.60
2019-03-05T06:56:02.127Z,6.80
2019-03-05T06:58:31.910Z,9.35
2019-03-05T07:01:01.831Z,7.10
2019-03-05T07:03:31.504Z,4.37
2019-03-05T07:06:37.110Z,5.30
2019-03-05T07:09:11.923Z,5.90
2019-03-05T07:11:55.711Z,6.87
2019-03-05T07:14:32.106Z,4.30
2019-03-05T07:17:16.506Z,6.10
2019-03-05T07:20:19.143Z,4.60
2019-03-05T07:23:00.365Z,2.50
2019-03-05T07:25:30.362Z,8.58
2019-03-05T07:28:00.430Z,11.50
2019-03-05T07:30:30.073Z,8.67
2019-03-05T07:33:00.385Z,4.67
2019-03-05T07:35:34.304Z,7.07
2019-03-05T07:38:04.352Z,6.25
2019-03-05T07:40:33.965Z,6.87
2019-03-05T07:43:03.808Z,9.83
2019-03-05T07:45:33.487Z,5.30
2019-03-05T07:48:03.582Z,5.03
2019-03-05T07:50:33.212Z,5.40
2019-03-05T07:53:02.963Z,9.50
2019-03-05T07:55:32.944Z,5.23
2019-03-05T07:58:02.663Z,6.23
2019-03-05T08:00:32.428Z,13.50
2019-03-05T08:03:02.439Z,5.80
2019-03-05T08:05:32.071Z,7.80
2019-03-05T08:08:40.216Z,10.05
2019-03-05T08:11:09.853Z,7.07
2019-03-05T08:14:01.324Z,9.43
2019-03-05T08:16:32.114Z,7.13
2019-03-05T08:19:01.874Z,4.37
2019-03-05T08:21:31.508Z,8.73
2019-03-05T08:24:01.558Z,4.37
2019-03-05T08:26:32.488Z,9.27
2019-03-05T08:29:03.093Z,7.83
2019-03-05T08:31:33.827Z,7.27
2019-03-05T08:34:03.780Z,9.55
2019-03-05T08:36:34.741Z,8.23
2019-03-05T08:39:06.432Z,7.23
2019-03-05T08:41:36.822Z,4.00
2019-03-05T08:44:06.805Z,6.30
2019-03-05T08:46:36.733Z,9.05
2019-03-05T08:49:06.901Z,4.47
2019-03-05T08:51:36.532Z,6.77
2019-03-05T08:54:07.811Z,5.67
2019-03-05T08:56:37.626Z,5.95
2019-03-05T08:59:07.286Z,6.97
2019-03-05T09:01:36.969Z,7.25
2019-03-05T09:04:06.614Z,5.00
2019-03-05T09:06:36.287Z,6.73
2019-03-05T09:09:07.290Z,9.50
2019-03-05T09:11:38.952Z,6.13
2019-03-05T09:14:08.902Z,9.53
2019-03-05T09:16:38.859Z,2.90
2019-03-05T09:19:08.498Z,3.33
2019-03-05T09:21:39.182Z,9.23
2019-03-05T09:24:08.808Z,3.87
2019-03-05T09:26:38.852Z,4.80
2019-03-05T09:29:08.754Z,5.90
2019-03-05T09:31:38.669Z,5.07
2019-03-05T09:34:08.288Z,4.33
2019-03-05T09:36:38.304Z,3.42
2019-03-05T09:39:10.710Z,4.30
2019-03-05T09:41:40.628Z,5.50
2019-03-05T09:44:10.578Z,2.27
2019-03-05T09:46:40.306Z,6.03
2019-03-05T09:49:09.938Z,1.53
2019-03-05T09:51:39.632Z,1.40
2019-03-05T09:54:09.270Z,5.17
2019-03-05T09:56:38.923Z,4.27
2019-03-05T09:59:08.712Z,1.70
2019-03-05T10:01:38.504Z,1.97
2019-03-05T10:04:08.222Z,4.00
2019-03-05T10:06:38.093Z,3.73
2019-03-05T10:09:08.447Z,4.40
2019-03-05T10:11:38.601Z,4.43
2019-03-05T10:14:08.667Z,1.90
2019-03-05T10:16:38.358Z,3.63
2019-03-05T10:19:08.337Z,4.92
2019-03-05T10:21:45.756Z,5.87
2019-03-05T10:24:10.689Z,5.07
2019-03-05T10:26:40.881Z,5.70
2019-03-05T10:29:10.720Z,2.73
2019-03-05T10:31:41.842Z,4.00
2019-03-05T10:34:11.613Z,8.15
2019-03-05T10:36:41.587Z,4.40
2019-03-05T10:39:39.971Z,3.02
2019-03-05T10:42:10.002Z,4.08
2019-03-05T10:44:39.883Z,7.53
2019-03-05T10:47:09.513Z,3.23
2019-03-05T10:49:39.226Z,3.85
2019-03-05T10:52:08.968Z,5.40
2019-03-05T10:54:39.019Z,9.57
2019-03-05T10:57:09.044Z,6.55
2019-03-05T10:59:38.685Z,3.13
2019-03-05T11:02:08.431Z,3.07
2019-03-05T11:04:45.498Z,7.22
2019-03-05T11:07:09.830Z,7.40
2019-03-05T11:09:39.594Z,3.80
2019-03-05T11:12:09.579Z,2.98
2019-03-05T11:14:39.317Z,4.62
2019-03-05T11:17:08.994Z,4.97
2019-03-05T11:19:39.043Z,5.20
2019-03-05T11:22:09.908Z,8.63
2019-03-05T11:24:39.970Z,2.03
2019-03-05T11:27:09.606Z,3.30
2019-03-05T11:29:39.609Z,3.03
2019-03-05T11:32:09.639Z,4.45
2019-03-05T11:34:39.274Z,5.37
2019-03-05T11:37:08.936Z,5.03
2019-03-05T11:39:38.943Z,6.53
2019-03-05T11:42:08.668Z,2.75
2019-03-05T11:44:38.625Z,5.73
2019-03-05T11:47:08.345Z,2.57
2019-03-05T11:49:38.542Z,6.17
2019-03-05T11:52:08.194Z,3.17
2019-03-05T11:54:37.850Z,7.83
2019-03-05T11:57:08.046Z,5.07
2019-03-05T11:59:37.736Z,4.00
2019-03-05T12:02:09.754Z,5.47
2019-03-05T12:04:38.787Z,2.80
2019-03-05T12:07:08.829Z,3.07
2019-03-05T12:09:38.573Z,6.63
2019-03-05T12:12:08.225Z,4.95
2019-03-05T12:14:37.953Z,4.80
2019-03-05T12:17:07.605Z,3.60
2019-03-05T12:19:37.302Z,4.58
2019-03-05T12:22:06.938Z,7.57
2019-03-05T12:24:36.639Z,5.43
2019-03-05T12:27:06.278Z,6.97
2019-03-05T12:29:36.288Z,2.63
2019-03-05T12:32:06.071Z,3.13
2019-03-05T12:34:36.053Z,2.98
2019-03-05T12:37:05.692Z,4.20
2019-03-05T12:39:35.332Z,2.40
2019-03-05T12:42:05.149Z,3.77
2019-03-05T12:44:34.804Z,2.20
2019-03-05T12:47:04.715Z,1.90
2019-03-05T12:49:34.634Z,2.70
2019-03-05T12:52:04.585Z,5.85
2019-03-05T12:54:34.675Z,2.20
2019-03-05T12:57:04.328Z,3.60
2019-03-05T12:59:34.088Z,2.57
2019-03-05T13:02:03.803Z,3.90
2019-03-05T13:04:33.462Z,10.03
2019-03-05T13:07:03.387Z,1.95
2019-03-05T13:09:33.075Z,2.37
2019-03-05T13:12:03.517Z,1.87
2019-03-05T13:14:34.290Z,3.07
2019-03-05T13:17:04.040Z,2.37
2019-03-05T13:19:33.684Z,3.57
2019-03-05T13:22:04.857Z,4.25
2019-03-05T13:24:34.642Z,3.93
2019-03-05T13:27:04.277Z,4.80
2019-03-05T13:29:33.944Z,2.37
2019-03-05T13:32:03.806Z,2.50
2019-03-05T13:34:33.449Z,2.13
2019-03-05T13:37:03.331Z,2.80
2019-03-05T13:39:33.342Z,4.57
2019-03-05T13:42:03.221Z,6.80
2019-03-05T13:44:34.321Z,2.77
2019-03-05T13:47:06.503Z,3.43
2019-03-05T13:49:43.076Z,7.50
2019-03-05T13:52:47.391Z,3.67
2019-03-05T13:55:40.481Z,2.57
2019-03-05T13:58:34.234Z,4.55
2019-03-05T14:01:06.668Z,2.87
2019-03-05T14:03:44.502Z,2.83
2019-03-05T14:06:41.283Z,2.43
2019-03-05T14:09:13.764Z,3.37
2019-03-05T14:11:44.789Z,3.10
2019-03-05T14:14:19.036Z,2.30
2019-03-05T14:16:52.362Z,4.47
2019-03-05T14:19:21.993Z,3.93
2019-03-05T14:21:51.973Z,2.63
2019-03-05T14:24:21.696Z,2.40
2019-03-05T14:26:51.292Z,3.33
2019-03-05T14:29:20.964Z,2.27
2019-03-05T14:31:51.227Z,2.20
2019-03-05T14:34:21.782Z,2.27
2019-03-05T14:36:51.768Z,3.87
2019-03-05T14:39:24.704Z,3.57
2019-03-05T14:41:54.606Z,1.83
2019-03-05T14:44:24.352Z,2.17
2019-03-05T14:46:55.629Z,2.53
2019-03-05T14:49:25.711Z,1.73
2019-03-05T14:51:55.650Z,3.33
2019-03-05T14:54:25.334Z,7.20
2019-03-05T14:56:55.040Z,2.70
2019-03-05T14:59:24.761Z,2.13
2019-03-05T15:01:54.393Z,3.52
2019-03-05T15:04:24.053Z,4.27
2019-03-05T15:06:53.766Z,2.93
2019-03-05T15:09:23.419Z,3.37
2019-03-05T15:11:53.051Z,3.43
2019-03-05T15:14:22.975Z,2.47
2019-03-05T15:16:52.813Z,4.77
2019-03-05T15:19:22.490Z,4.00
2019-03-05T15:21:52.175Z,4.63
2019-03-05T15:24:21.807Z,7.03
2019-03-05T15:26:51.483Z,2.33
2019-03-05T15:29:21.700Z,6.90
2019-03-05T15:31:51.344Z,3.77
2019-03-05T15:34:21.881Z,3.53
2019-03-05T15:36:52.158Z,3.07
2019-03-05T15:39:22.020Z,3.17
2019-03-05T15:41:51.691Z,2.00
2019-03-05T15:44:21.353Z,3.20
2019-03-05T15:46:50.999Z,2.07
2019-03-05T15:49:20.735Z,4.00
2019-03-05T15:51:50.682Z,4.13
2019-03-05T15:54:20.304Z,5.77
2019-03-05T15:56:50.193Z,2.07
2019-03-05T15:59:19.855Z,7.13
2019-03-05T16:01:49.623Z,3.43
2019-03-05T16:04:19.383Z,3.77
2019-03-05T16:06:50.697Z,2.93
2019-03-05T16:09:20.655Z,4.07
2019-03-05T16:11:50.350Z,4.03
2019-03-05T16:14:19.979Z,2.17
2019-03-05T16:16:51.754Z,3.77
2019-03-05T16:19:21.362Z,5.83
2019-03-05T16:21:51.253Z,7.77
2019-03-05T16:24:21.269Z,4.73
2019-03-05T16:26:51.297Z,3.53
2019-03-05T16:29:20.995Z,3.17
2019-03-05T16:32:00.470Z,1.53
2019-03-05T16:34:45.837Z,2.53
2019-03-05T16:37:21.357Z,2.87
2019-03-05T16:39:59.252Z,3.40
2019-03-05T16:42:45.099Z,2.10
2019-03-05T16:45:32.557Z,4.93
2019-03-05T16:48:20.547Z,2.57
2019-03-05T16:51:01.735Z,4.93
2019-03-05T16:53:48.632Z,5.37
2019-03-05T16:56:40.540Z,7.47
2019-03-05T16:59:27.504Z,4.03
2019-03-05T17:02:06.412Z,5.10
2019-03-05T17:04:46.229Z,5.42
2019-03-05T17:07:26.633Z,7.03
2019-03-05T17:10:18.786Z,4.10
2019-03-05T17:12:48.438Z,4.40
2019-03-05T17:15:18.677Z,3.97
2019-03-05T17:17:48.579Z,9.87
2019-03-05T17:20:18.297Z,4.57
2019-03-05T17:22:47.926Z,5.60
2019-03-05T17:25:19.026Z,3.73
2019-03-05T17:27:49.109Z,6.70
2019-03-05T17:30:19.688Z,11.03
2019-03-05T17:32:49.688Z,6.27
2019-03-05T17:35:19.417Z,8.40
2019-03-05T17:37:49.689Z,8.33
2019-03-05T17:40:19.635Z,7.27
2019-03-05T17:42:50.258Z,3.97
2019-03-05T17:45:20.630Z,2.23
2019-03-05T17:47:50.722Z,4.90
2019-03-05T17:50:20.424Z,8.90
2019-03-05T17:52:50.152Z,8.13
2019-03-05T17:55:24.166Z,9.13
2019-03-05T17:57:52.473Z,5.80
2019-03-05T18:00:28.820Z,7.70
2019-03-05T18:02:58.693Z,6.43
2019-03-05T18:05:28.360Z,3.55
2019-03-05T18:07:58.338Z,4.67
2019-03-05T18:10:28.160Z,5.33
2019-03-05T18:12:57.875Z,3.53
2019-03-05T18:15:28.844Z,6.93
2019-03-05T18:17:59.042Z,5.97
2019-03-05T18:20:28.792Z,3.63
2019-03-05T18:22:58.497Z,8.43
2019-03-05T18:25:29.384Z,2.47
2019-03-05T18:27:59.533Z,18.70
2019-03-05T18:30:29.450Z,7.70
2019-03-05T18:32:59.372Z,3.93
2019-03-05T18:35:29.043Z,5.73
2019-03-05T18:37:58.688Z,8.33
2019-03-05T18:40:28.940Z,2.97
2019-03-05T18:42:58.937Z,3.07
2019-03-05T18:45:29.212Z,2.83
2019-03-05T18:47:59.112Z,3.27
2019-03-05T18:50:28.864Z,2.83
2019-03-05T18:52:58.666Z,7.20
2019-03-05T18:55:28.564Z,6.78
2019-03-05T18:57:58.346Z,5.97
2019-03-05T19:00:28.120Z,5.63
2019-03-05T19:02:58.172Z,5.03
2019-03-05T19:05:27.920Z,7.50
2019-03-05T19:07:57.895Z,7.73
2019-03-05T19:10:27.959Z,10.30
2019-03-05T19:12:57.849Z,15.07
2019-03-05T19:15:27.984Z,8.70
2019-03-05T19:17:57.749Z,5.90
2019-03-05T19:20:27.624Z,6.90
2019-03-05T19:22:59.827Z,7.87
2019-03-05T19:25:30.257Z,5.57
2019-03-05T19:28:01.320Z,5.78
2019-03-05T19:30:32.769Z,10.17
2019-03-05T19:33:02.717Z,8.87
2019-03-05T19:35:32.623Z,8.27
2019-03-05T19:38:02.568Z,6.00
2019-03-05T19:40:33.873Z,9.57
2019-03-05T19:43:03.818Z,5.63
2019-03-05T19:45:33.797Z,10.67
2019-03-05T19:48:23.032Z,9.37
2019-03-05T19:50:52.980Z,5.87
2019-03-05T19:53:23.074Z,13.97
2019-03-05T19:55:53.382Z,5.00
2019-03-05T19:58:23.154Z,7.50
2019-03-05T20:01:14.730Z,5.00
2019-03-05T20:03:44.810Z,6.97
2019-03-05T20:06:16.657Z,5.80
2019-03-05T20:08:46.947Z,6.07
2019-03-05T20:11:17.085Z,5.10
2019-03-05T20:13:46.841Z,4.58
2019-03-05T20:16:18.414Z,6.00
2019-03-05T20:18:48.143Z,6.60
2019-03-05T20:21:18.184Z,6.55
2019-03-05T20:23:47.905Z,9.28
2019-03-05T20:26:17.718Z,8.58
2019-03-05T20:28:49.508Z,4.20
2019-03-05T20:31:20.017Z,8.33
2019-03-05T20:33:50.213Z,3.83
2019-03-05T20:36:21.455Z,9.88
2019-03-05T20:38:51.531Z,7.80
2019-03-05T20:41:21.660Z,6.90
2019-03-05T20:43:52.182Z,8.83
2019-03-05T20:46:27.601Z,8.57
2019-03-05T20:48:57.730Z,6.63
2019-03-05T20:51:27.528Z,9.13
2019-03-05T20:53:57.568Z,5.23
2019-03-05T20:56:27.522Z,13.43
2019-03-05T20:58:57.593Z,6.33
2019-03-05T21:01:27.476Z,9.83
2019-03-05T21:03:57.474Z,10.83
2019-03-05T21:06:27.575Z,6.27
2019-03-05T21:08:57.305Z,7.13
2019-03-05T21:11:27.498Z,6.33
2019-03-05T21:13:57.216Z,8.47
2019-03-05T21:16:27.855Z,11.63
2019-03-05T21:18:57.595Z,8.90
2019-03-05T21:21:27.377Z,5.17
2019-03-05T21:23:57.446Z,9.43
2019-03-05T21:26:27.785Z,10.07
2019-03-05T21:29:00.839Z,8.90
2019-03-05T21:31:31.332Z,6.78
2019-03-05T21:34:01.391Z,7.17
2019-03-05T21:36:31.333Z,6.28
2019-03-05T21:39:01.713Z,7.33
2019-03-05T21:41:33.302Z,9.03
2019-03-05T21:44:03.525Z,7.53
2019-03-05T21:46:33.300Z,7.10
2019-03-05T21:49:03.017Z,5.63
2019-03-05T21:51:32.829Z,12.53
2019-03-05T21:54:02.535Z,5.67
2019-03-05T21:56:32.307Z,7.13
2019-03-05T21:59:03.070Z,6.40
2019-03-05T22:01:33.568Z,5.73
2019-03-05T22:04:03.643Z,7.77
2019-03-05T22:06:34.372Z,7.03
2019-03-05T22:09:05.053Z,8.77
2019-03-05T22:11:36.414Z,7.33
2019-03-05T22:14:06.186Z,9.63
2019-03-05T22:16:36.122Z,11.43
2019-03-05T22:19:06.481Z,10.37
2019-03-05T22:21:36.339Z,8.65
2019-03-05T22:24:06.261Z,8.53
2019-03-05T22:26:35.930Z,6.00
2019-03-05T22:29:08.467Z,9.15
2019-03-05T22:31:38.170Z,5.57
2019-03-05T22:34:07.953Z,7.28
2019-03-05T22:36:37.866Z,6.60
2019-03-05T22:39:08.090Z,4.85
2019-03-05T22:41:38.948Z,10.07
2019-03-05T22:44:08.620Z,5.60
2019-03-05T22:46:38.467Z,17.07
2019-03-05T22:49:08.280Z,5.87
2019-03-05T22:51:37.926Z,8.10
2019-03-05T22:54:07.820Z,7.63
2019-03-05T22:56:37.539Z,8.83
2019-03-05T22:59:07.634Z,7.43
2019-03-05T23:01:40.325Z,6.77
2019-03-05T23:04:11.877Z,6.97
2019-03-05T23:06:42.641Z,9.47
2019-03-05T23:09:19.223Z,5.53
2019-03-05T23:11:49.128Z,6.50
2019-03-05T23:14:20.333Z,6.23
2019-03-05T23:16:50.143Z,7.20
2019-03-05T23:19:20.050Z,7.60
2019-03-05T23:21:49.744Z,4.90
2019-03-05T23:24:19.560Z,6.00
2019-03-05T23:26:49.545Z,8.90
2019-03-05T23:29:20.922Z,5.13
2019-03-05T23:31:50.833Z,4.17
2019-03-05T23:34:20.497Z,4.43
2019-03-05T23:36:50.628Z,6.20
2019-03-05T23:39:20.278Z,3.83
2019-03-05T23:41:50.580Z,3.97
2019-03-05T23:44:20.058Z,5.80
2019-03-05T23:46:50.100Z,6.40
2019-03-05T23:49:19.822Z,8.03
2019-03-05T23:51:49.536Z,4.10
2019-03-05T23:54:19.651Z,3.37
2019-03-05T23:56:49.602Z,5.87
2019-03-05T23:59:19.408Z,5.23
